sensor_id;sensor_type;location;lat;lon;timestamp;temperature;humidity
36594;DHT22;22603;47.900;8.146;2023-10-08T00:01:38;7.60;99.90
36594;DHT22;22603;47.900;8.146;2023-10-08T00:04:27;7.60;99.90
36594;DHT22;22603;47.900;8.146;2023-10-08T00:07:14;7.60;99.90
36594;DHT22;22603;47.900;8.146;2023-10-08T00:10:01;7.60;99.90
36594;DHT22;22603;47.900;8.146;2023-10-08T00:12:50;7.60;99.90
36594;DHT22;22603;47.900;8.146;2023-10-08T00:15:37;7.50;99.90
36594;DHT22;22603;47.900;8.146;2023-10-08T00:18:27;7.50;99.90
36594;DHT22;22603;47.900;8.146;2023-10-08T00:21:13;7.50;99.90
36594;DHT22;22603;47.900;8.146;2023-10-08T00:24:05;7.40;99.90
36594;DHT22;22603;47.900;8.146;2023-10-08T00:26:54;7.40;99.90
36594;DHT22;22603;47.900;8.146;2023-10-08T00:29:43;7.40;99.90
36594;DHT22;22603;47.900;8.146;2023-10-08T00:32:30;7.40;99.90
36594;DHT22;22603;47.900;8.146;2023-10-08T00:35:17;7.40;99.90
36594;DHT22;22603;47.900;8.146;2023-10-08T00:38:06;7.40;99.90
36594;DHT22;22603;47.900;8.146;2023-10-08T00:40:53;7.40;99.90
36594;DHT22;22603;47.900;8.146;2023-10-08T00:43:41;7.40;99.90
36594;DHT22;22603;47.900;8.146;2023-10-08T00:46:32;7.40;99.90
36594;DHT22;22603;47.900;8.146;2023-10-08T00:49:26;7.30;99.90
36594;DHT22;22603;47.900;8.146;2023-10-08T00:52:25;7.30;99.90
36594;DHT22;22603;47.900;8.146;2023-10-08T00:55:25;7.20;99.90
36594;DHT22;22603;47.900;8.146;2023-10-08T00:58:15;7.30;99.90
36594;DHT22;22603;47.900;8.146;2023-10-08T01:01:09;7.30;99.90
36594;DHT22;22603;47.900;8.146;2023-10-08T01:03:59;7.20;99.90
36594;DHT22;22603;47.900;8.146;2023-10-08T01:06:50;7.20;99.90
36594;DHT22;22603;47.900;8.146;2023-10-08T01:09:40;7.20;99.90
36594;DHT22;22603;47.900;8.146;2023-10-08T01:12:28;7.20;99.90
36594;DHT22;22603;47.900;8.146;2023-10-08T01:15:19;7.20;99.90
36594;DHT22;22603;47.900;8.146;2023-10-08T01:18:09;7.20;99.90
36594;DHT22;22603;47.900;8.146;2023-10-08T01:21:02;7.20;99.90
36594;DHT22;22603;47.900;8.146;2023-10-08T01:23:55;7.20;99.90
36594;DHT22;22603;47.900;8.146;2023-10-08T01:26:45;7.10;99.90
36594;DHT22;22603;47.900;8.146;2023-10-08T01:29:33;7.10;99.90
36594;DHT22;22603;47.900;8.146;2023-10-08T01:32:21;7.10;99.90
36594;DHT22;22603;47.900;8.146;2023-10-08T01:35:09;7.10;99.90
36594;DHT22;22603;47.900;8.146;2023-10-08T01:38:08;7.10;99.90
36594;DHT22;22603;47.900;8.146;2023-10-08T01:41:00;7.00;99.90
36594;DHT22;22603;47.900;8.146;2023-10-08T01:43:51;7.00;99.90
36594;DHT22;22603;47.900;8.146;2023-10-08T01:46:38;7.00;99.90
36594;DHT22;22603;47.900;8.146;2023-10-08T01:49:26;7.00;99.90
36594;DHT22;22603;47.900;8.146;2023-10-08T01:52:17;7.00;99.90
36594;DHT22;22603;47.900;8.146;2023-10-08T01:55:07;7.00;99.90
36594;DHT22;22603;47.900;8.146;2023-10-08T01:58:00;7.00;99.90
36594;DHT22;22603;47.900;8.146;2023-10-08T02:00:48;6.90;99.90
36594;DHT22;22603;47.900;8.146;2023-10-08T02:03:35;6.90;99.90
36594;DHT22;22603;47.900;8.146;2023-10-08T02:06:23;6.90;99.90
36594;DHT22;22603;47.900;8.146;2023-10-08T02:09:09;7.00;99.90
36594;DHT22;22603;47.900;8.146;2023-10-08T02:11:59;6.90;99.90
36594;DHT22;22603;47.900;8.146;2023-10-08T02:14:47;6.90;99.90
36594;DHT22;22603;47.900;8.146;2023-10-08T02:17:35;6.90;99.90
36594;DHT22;22603;47.900;8.146;2023-10-08T02:20:21;6.90;99.90
36594;DHT22;22603;47.900;8.146;2023-10-08T02:23:08;6.90;99.90
36594;DHT22;22603;47.900;8.146;2023-10-08T02:25:57;6.90;99.90
36594;DHT22;22603;47.900;8.146;2023-10-08T02:28:44;6.90;99.90
36594;DHT22;22603;47.900;8.146;2023-10-08T02:31:32;6.90;99.90
36594;DHT22;22603;47.900;8.146;2023-10-08T02:34:18;6.90;99.90
36594;DHT22;22603;47.900;8.146;2023-10-08T02:37:06;6.90;99.90
36594;DHT22;22603;47.900;8.146;2023-10-08T02:39:53;6.90;99.90
36594;DHT22;22603;47.900;8.146;2023-10-08T02:42:39;6.90;99.90
36594;DHT22;22603;47.900;8.146;2023-10-08T02:45:27;6.80;99.90
36594;DHT22;22603;47.900;8.146;2023-10-08T02:48:16;6.90;99.90
36594;DHT22;22603;47.900;8.146;2023-10-08T02:51:04;6.90;99.90
36594;DHT22;22603;47.900;8.146;2023-10-08T02:53:59;6.80;99.90
36594;DHT22;22603;47.900;8.146;2023-10-08T02:56:49;6.80;99.90
36594;DHT22;22603;47.900;8.146;2023-10-08T02:59:37;6.80;99.90
36594;DHT22;22603;47.900;8.146;2023-10-08T03:02:26;6.70;99.90
36594;DHT22;22603;47.900;8.146;2023-10-08T03:05:15;6.80;99.90
36594;DHT22;22603;47.900;8.146;2023-10-08T03:08:04;6.80;99.90
36594;DHT22;22603;47.900;8.146;2023-10-08T03:10:56;6.70;99.90
36594;DHT22;22603;47.900;8.146;2023-10-08T03:13:48;6.70;99.90
36594;DHT22;22603;47.900;8.146;2023-10-08T03:16:37;6.70;99.90
36594;DHT22;22603;47.900;8.146;2023-10-08T03:19:25;6.70;99.90
36594;DHT22;22603;47.900;8.146;2023-10-08T03:22:14;6.70;99.90
36594;DHT22;22603;47.900;8.146;2023-10-08T03:25:05;6.70;99.90
36594;DHT22;22603;47.900;8.146;2023-10-08T03:28:01;6.70;99.90
36594;DHT22;22603;47.900;8.146;2023-10-08T03:30:48;6.70;99.90
36594;DHT22;22603;47.900;8.146;2023-10-08T03:33:36;6.70;99.90
36594;DHT22;22603;47.900;8.146;2023-10-08T03:36:23;6.70;99.90
36594;DHT22;22603;47.900;8.146;2023-10-08T03:39:21;6.60;99.90
36594;DHT22;22603;47.900;8.146;2023-10-08T03:42:09;6.60;99.90
36594;DHT22;22603;47.900;8.146;2023-10-08T03:44:58;6.60;99.90
36594;DHT22;22603;47.900;8.146;2023-10-08T03:47:55;6.60;99.90
36594;DHT22;22603;47.900;8.146;2023-10-08T03:50:51;6.50;99.90
36594;DHT22;22603;47.900;8.146;2023-10-08T03:53:42;6.50;99.90
36594;DHT22;22603;47.900;8.146;2023-10-08T03:56:45;6.50;99.90
36594;DHT22;22603;47.900;8.146;2023-10-08T03:59:36;6.60;99.90
36594;DHT22;22603;47.900;8.146;2023-10-08T04:02:27;6.50;99.90
36594;DHT22;22603;47.900;8.146;2023-10-08T04:05:25;6.50;99.90
36594;DHT22;22603;47.900;8.146;2023-10-08T04:08:19;6.50;99.90
36594;DHT22;22603;47.900;8.146;2023-10-08T04:11:10;6.50;99.90
36594;DHT22;22603;47.900;8.146;2023-10-08T04:14:15;6.50;99.90
36594;DHT22;22603;47.900;8.146;2023-10-08T04:17:02;6.50;99.90
36594;DHT22;22603;47.900;8.146;2023-10-08T04:19:49;6.50;99.90
36594;DHT22;22603;47.900;8.146;2023-10-08T04:22:37;6.40;99.90
36594;DHT22;22603;47.900;8.146;2023-10-08T04:25:24;6.50;99.90
36594;DHT22;22603;47.900;8.146;2023-10-08T04:28:11;6.40;99.90
36594;DHT22;22603;47.900;8.146;2023-10-08T04:31:01;6.40;99.90
36594;DHT22;22603;47.900;8.146;2023-10-08T04:34:00;6.40;99.90
36594;DHT22;22603;47.900;8.146;2023-10-08T04:36:47;6.40;99.90
36594;DHT22;22603;47.900;8.146;2023-10-08T04:39:40;6.40;99.90
36594;DHT22;22603;47.900;8.146;2023-10-08T04:42:33;6.40;99.90
36594;DHT22;22603;47.900;8.146;2023-10-08T04:45:26;6.40;99.90
36594;DHT22;22603;47.900;8.146;2023-10-08T04:48:15;6.40;99.90
36594;DHT22;22603;47.900;8.146;2023-10-08T04:51:06;6.40;99.90
36594;DHT22;22603;47.900;8.146;2023-10-08T04:53:58;6.40;99.90
36594;DHT22;22603;47.900;8.146;2023-10-08T04:56:52;6.30;99.90
36594;DHT22;22603;47.900;8.146;2023-10-08T04:59:39;6.30;99.90
36594;DHT22;22603;47.900;8.146;2023-10-08T05:02:25;6.30;99.90
36594;DHT22;22603;47.900;8.146;2023-10-08T05:05:32;6.30;99.90
36594;DHT22;22603;47.900;8.146;2023-10-08T05:08:38;6.30;99.90
36594;DHT22;22603;47.900;8.146;2023-10-08T05:11:43;6.30;99.90
36594;DHT22;22603;47.900;8.146;2023-10-08T05:14:32;6.30;99.90
36594;DHT22;22603;47.900;8.146;2023-10-08T05:17:24;6.40;99.90
36594;DHT22;22603;47.900;8.146;2023-10-08T05:20:20;6.30;99.90
36594;DHT22;22603;47.900;8.146;2023-10-08T05:23:27;6.30;99.90
36594;DHT22;22603;47.900;8.146;2023-10-08T05:26:39;6.30;99.90
36594;DHT22;22603;47.900;8.146;2023-10-08T05:29:30;6.30;99.90
36594;DHT22;22603;47.900;8.146;2023-10-08T05:32:38;6.40;99.90
36594;DHT22;22603;47.900;8.146;2023-10-08T05:35:38;6.30;99.90
36594;DHT22;22603;47.900;8.146;2023-10-08T05:38:41;6.30;99.90
36594;DHT22;22603;47.900;8.146;2023-10-08T05:41:46;6.30;99.90
36594;DHT22;22603;47.900;8.146;2023-10-08T05:44:37;6.30;99.90
36594;DHT22;22603;47.900;8.146;2023-10-08T05:47:25;6.30;99.90
36594;DHT22;22603;47.900;8.146;2023-10-08T05:50:24;6.30;99.90
36594;DHT22;22603;47.900;8.146;2023-10-08T05:53:28;6.30;99.90
36594;DHT22;22603;47.900;8.146;2023-10-08T05:56:31;6.30;99.90
36594;DHT22;22603;47.900;8.146;2023-10-08T05:59:38;6.40;99.90
36594;DHT22;22603;47.900;8.146;2023-10-08T06:02:27;6.40;99.90
36594;DHT22;22603;47.900;8.146;2023-10-08T06:05:25;6.50;99.90
36594;DHT22;22603;47.900;8.146;2023-10-08T06:08:18;6.50;99.90
36594;DHT22;22603;47.900;8.146;2023-10-08T06:11:24;6.60;99.90
36594;DHT22;22603;47.900;8.146;2023-10-08T06:14:31;6.60;99.90
36594;DHT22;22603;47.900;8.146;2023-10-08T06:17:38;6.70;99.90
36594;DHT22;22603;47.900;8.146;2023-10-08T06:20:42;6.90;99.90
36594;DHT22;22603;47.900;8.146;2023-10-08T06:23:30;6.90;99.90
36594;DHT22;22603;47.900;8.146;2023-10-08T06:26:21;7.00;99.90
36594;DHT22;22603;47.900;8.146;2023-10-08T06:29:10;7.20;99.90
36594;DHT22;22603;47.900;8.146;2023-10-08T06:32:14;7.30;99.90
36594;DHT22;22603;47.900;8.146;2023-10-08T06:35:02;7.40;99.90
36594;DHT22;22603;47.900;8.146;2023-10-08T06:37:48;7.60;99.90
36594;DHT22;22603;47.900;8.146;2023-10-08T06:40:40;7.70;99.90
36594;DHT22;22603;47.900;8.146;2023-10-08T06:43:29;7.90;99.90
36594;DHT22;22603;47.900;8.146;2023-10-08T06:46:18;8.10;99.90
36594;DHT22;22603;47.900;8.146;2023-10-08T06:49:09;8.20;99.90
36594;DHT22;22603;47.900;8.146;2023-10-08T06:51:59;8.30;99.90
36594;DHT22;22603;47.900;8.146;2023-10-08T06:54:50;8.50;99.90
36594;DHT22;22603;47.900;8.146;2023-10-08T06:57:38;8.70;99.90
36594;DHT22;22603;47.900;8.146;2023-10-08T07:00:25;8.90;99.90
36594;DHT22;22603;47.900;8.146;2023-10-08T07:07:09;9.50;99.90
36594;DHT22;22603;47.900;8.146;2023-10-08T07:10:05;10.30;99.90
36594;DHT22;22603;47.900;8.146;2023-10-08T07:12:55;11.50;99.90
36594;DHT22;22603;47.900;8.146;2023-10-08T07:15:42;12.90;99.90
36594;DHT22;22603;47.900;8.146;2023-10-08T07:18:30;13.30;99.90
36594;DHT22;22603;47.900;8.146;2023-10-08T07:21:20;14.00;99.90
36594;DHT22;22603;47.900;8.146;2023-10-08T07:24:15;14.70;99.90
36594;DHT22;22603;47.900;8.146;2023-10-08T07:27:03;15.50;99.90
36594;DHT22;22603;47.900;8.146;2023-10-08T07:29:54;16.10;99.90
36594;DHT22;22603;47.900;8.146;2023-10-08T07:32:42;16.30;99.90
36594;DHT22;22603;47.900;8.146;2023-10-08T07:35:30;15.90;99.90
36594;DHT22;22603;47.900;8.146;2023-10-08T07:38:27;16.00;99.90
36594;DHT22;22603;47.900;8.146;2023-10-08T07:41:15;17.50;99.90
36594;DHT22;22603;47.900;8.146;2023-10-08T07:44:03;18.20;99.90
36594;DHT22;22603;47.900;8.146;2023-10-08T07:46:53;18.60;99.90
36594;DHT22;22603;47.900;8.146;2023-10-08T07:49:41;18.60;99.90
36594;DHT22;22603;47.900;8.146;2023-10-08T07:56:15;19.70;99.90
36594;DHT22;22603;47.900;8.146;2023-10-08T07:59:03;20.20;99.90
36594;DHT22;22603;47.900;8.146;2023-10-08T08:01:53;19.70;99.90
36594;DHT22;22603;47.900;8.146;2023-10-08T08:04:41;19.40;99.90
36594;DHT22;22603;47.900;8.146;2023-10-08T08:07:31;19.80;99.90
36594;DHT22;22603;47.900;8.146;2023-10-08T08:10:18;19.90;99.90
36594;DHT22;22603;47.900;8.146;2023-10-08T08:13:11;19.70;99.90
36594;DHT22;22603;47.900;8.146;2023-10-08T08:15:59;20.20;99.90
36594;DHT22;22603;47.900;8.146;2023-10-08T08:18:54;20.50;99.90
36594;DHT22;22603;47.900;8.146;2023-10-08T08:21:43;21.30;99.90
36594;DHT22;22603;47.900;8.146;2023-10-08T08:24:32;21.80;99.90
36594;DHT22;22603;47.900;8.146;2023-10-08T08:27:22;21.50;99.90
36594;DHT22;22603;47.900;8.146;2023-10-08T08:30:13;21.90;99.90
36594;DHT22;22603;47.900;8.146;2023-10-08T08:33:01;22.20;99.90
36594;DHT22;22603;47.900;8.146;2023-10-08T08:35:58;23.10;99.90
36594;DHT22;22603;47.900;8.146;2023-10-08T08:38:46;22.70;99.90
36594;DHT22;22603;47.900;8.146;2023-10-08T08:41:37;22.90;99.90
36594;DHT22;22603;47.900;8.146;2023-10-08T08:44:25;23.30;99.90
36594;DHT22;22603;47.900;8.146;2023-10-08T08:47:17;22.90;99.90
36594;DHT22;22603;47.900;8.146;2023-10-08T08:50:07;23.10;99.90
36594;DHT22;22603;47.900;8.146;2023-10-08T08:52:54;24.00;99.90
36594;DHT22;22603;47.900;8.146;2023-10-08T08:55:41;24.40;99.90
36594;DHT22;22603;47.900;8.146;2023-10-08T08:58:29;24.50;99.90
36594;DHT22;22603;47.900;8.146;2023-10-08T09:01:17;24.70;99.90
36594;DHT22;22603;47.900;8.146;2023-10-08T09:04:07;24.90;99.90
36594;DHT22;22603;47.900;8.146;2023-10-08T09:06:53;25.90;99.90
36594;DHT22;22603;47.900;8.146;2023-10-08T09:09:41;26.20;99.90
36594;DHT22;22603;47.900;8.146;2023-10-08T09:12:31;26.80;99.90
36594;DHT22;22603;47.900;8.146;2023-10-08T09:15:20;27.70;99.90
36594;DHT22;22603;47.900;8.146;2023-10-08T09:18:08;27.40;99.90
36594;DHT22;22603;47.900;8.146;2023-10-08T09:20:57;28.10;99.90
36594;DHT22;22603;47.900;8.146;2023-10-08T09:23:44;28.60;99.90
36594;DHT22;22603;47.900;8.146;2023-10-08T09:26:33;28.50;99.90
36594;DHT22;22603;47.900;8.146;2023-10-08T09:29:23;28.70;99.90
36594;DHT22;22603;47.900;8.146;2023-10-08T09:32:11;28.40;99.90
36594;DHT22;22603;47.900;8.146;2023-10-08T09:34:59;28.40;99.90
36594;DHT22;22603;47.900;8.146;2023-10-08T09:37:48;28.20;99.90
36594;DHT22;22603;47.900;8.146;2023-10-08T09:40:36;27.90;99.90
36594;DHT22;22603;47.900;8.146;2023-10-08T09:43:23;27.70;99.90
36594;DHT22;22603;47.900;8.146;2023-10-08T09:46:16;27.50;99.90
36594;DHT22;22603;47.900;8.146;2023-10-08T09:49:05;27.20;99.90
36594;DHT22;22603;47.900;8.146;2023-10-08T09:51:55;27.20;99.90
36594;DHT22;22603;47.900;8.146;2023-10-08T09:54:49;27.00;99.90
36594;DHT22;22603;47.900;8.146;2023-10-08T09:57:38;26.60;99.90
36594;DHT22;22603;47.900;8.146;2023-10-08T10:00:26;26.70;99.90
36594;DHT22;22603;47.900;8.146;2023-10-08T10:03:17;26.60;99.90
36594;DHT22;22603;47.900;8.146;2023-10-08T10:06:12;26.70;99.90
36594;DHT22;22603;47.900;8.146;2023-10-08T10:09:00;27.30;99.90
36594;DHT22;22603;47.900;8.146;2023-10-08T10:11:51;27.20;99.90
36594;DHT22;22603;47.900;8.146;2023-10-08T10:14:41;27.10;99.90
36594;DHT22;22603;47.900;8.146;2023-10-08T10:17:29;27.20;99.90
36594;DHT22;22603;47.900;8.146;2023-10-08T10:20:31;27.10;99.90
36594;DHT22;22603;47.900;8.146;2023-10-08T10:23:36;27.10;99.90
36594;DHT22;22603;47.900;8.146;2023-10-08T10:26:25;27.20;99.90
36594;DHT22;22603;47.900;8.146;2023-10-08T10:29:22;27.60;99.90
36594;DHT22;22603;47.900;8.146;2023-10-08T10:32:13;27.70;99.90
36594;DHT22;22603;47.900;8.146;2023-10-08T10:35:00;28.30;99.90
36594;DHT22;22603;47.900;8.146;2023-10-08T10:37:49;28.50;99.90
36594;DHT22;22603;47.900;8.146;2023-10-08T10:40:39;28.60;99.90
36594;DHT22;22603;47.900;8.146;2023-10-08T10:43:26;28.40;99.90
36594;DHT22;22603;47.900;8.146;2023-10-08T10:46:19;28.00;99.90
36594;DHT22;22603;47.900;8.146;2023-10-08T10:49:16;27.60;99.90
36594;DHT22;22603;47.900;8.146;2023-10-08T10:52:06;27.30;99.90
36594;DHT22;22603;47.900;8.146;2023-10-08T10:55:01;27.00;99.90
36594;DHT22;22603;47.900;8.146;2023-10-08T10:58:04;26.50;99.90
36594;DHT22;22603;47.900;8.146;2023-10-08T11:00:58;26.30;99.90
36594;DHT22;22603;47.900;8.146;2023-10-08T11:03:48;26.10;99.90
36594;DHT22;22603;47.900;8.146;2023-10-08T11:06:37;25.90;99.90
36594;DHT22;22603;47.900;8.146;2023-10-08T11:09:24;25.90;99.90
36594;DHT22;22603;47.900;8.146;2023-10-08T11:12:21;25.80;99.90
36594;DHT22;22603;47.900;8.146;2023-10-08T11:15:17;25.60;99.90
36594;DHT22;22603;47.900;8.146;2023-10-08T11:18:07;25.70;99.90
36594;DHT22;22603;47.900;8.146;2023-10-08T11:21:06;25.40;99.90
36594;DHT22;22603;47.900;8.146;2023-10-08T11:23:59;25.20;99.90
36594;DHT22;22603;47.900;8.146;2023-10-08T11:26:54;25.20;99.90
36594;DHT22;22603;47.900;8.146;2023-10-08T11:29:52;25.40;99.90
36594;DHT22;22603;47.900;8.146;2023-10-08T11:32:43;26.20;99.90
36594;DHT22;22603;47.900;8.146;2023-10-08T11:35:33;26.60;99.90
36594;DHT22;22603;47.900;8.146;2023-10-08T11:38:21;26.50;99.90
36594;DHT22;22603;47.900;8.146;2023-10-08T11:41:11;26.10;99.90
36594;DHT22;22603;47.900;8.146;2023-10-08T11:44:06;26.10;99.90
36594;DHT22;22603;47.900;8.146;2023-10-08T11:46:59;26.00;99.90
36594;DHT22;22603;47.900;8.146;2023-10-08T11:49:57;25.80;99.90
36594;DHT22;22603;47.900;8.146;2023-10-08T11:52:55;25.60;99.90
36594;DHT22;22603;47.900;8.146;2023-10-08T11:55:48;25.40;99.90
36594;DHT22;22603;47.900;8.146;2023-10-08T11:58:35;25.80;99.90
36594;DHT22;22603;47.900;8.146;2023-10-08T12:01:23;26.30;99.90
36594;DHT22;22603;47.900;8.146;2023-10-08T12:04:12;26.40;99.90
36594;DHT22;22603;47.900;8.146;2023-10-08T12:07:02;26.20;99.90
36594;DHT22;22603;47.900;8.146;2023-10-08T12:09:52;25.90;99.90
36594;DHT22;22603;47.900;8.146;2023-10-08T12:12:41;25.80;99.90
36594;DHT22;22603;47.900;8.146;2023-10-08T12:15:27;25.60;99.90
36594;DHT22;22603;47.900;8.146;2023-10-08T12:18:23;25.60;99.90
36594;DHT22;22603;47.900;8.146;2023-10-08T12:21:11;25.60;99.90
36594;DHT22;22603;47.900;8.146;2023-10-08T12:24:01;25.60;99.90
36594;DHT22;22603;47.900;8.146;2023-10-08T12:26:50;25.50;99.90
36594;DHT22;22603;47.900;8.146;2023-10-08T12:29:39;25.60;99.90
36594;DHT22;22603;47.900;8.146;2023-10-08T12:32:28;25.60;99.90
36594;DHT22;22603;47.900;8.146;2023-10-08T12:35:16;25.60;99.90
36594;DHT22;22603;47.900;8.146;2023-10-08T12:38:03;25.80;99.90
36594;DHT22;22603;47.900;8.146;2023-10-08T12:40:51;26.00;99.90
36594;DHT22;22603;47.900;8.146;2023-10-08T12:43:39;25.90;99.90
36594;DHT22;22603;47.900;8.146;2023-10-08T12:46:31;24.80;99.90
36594;DHT22;22603;47.900;8.146;2023-10-08T12:49:19;24.30;99.90
36594;DHT22;22603;47.900;8.146;2023-10-08T12:52:07;24.10;99.90
36594;DHT22;22603;47.900;8.146;2023-10-08T12:54:54;24.10;99.90
36594;DHT22;22603;47.900;8.146;2023-10-08T12:57:43;24.20;99.90
36594;DHT22;22603;47.900;8.146;2023-10-08T13:00:35;24.70;99.90
36594;DHT22;22603;47.900;8.146;2023-10-08T13:03:25;24.70;99.90
36594;DHT22;22603;47.900;8.146;2023-10-08T13:06:18;25.00;99.90
36594;DHT22;22603;47.900;8.146;2023-10-08T13:09:08;25.10;99.90
36594;DHT22;22603;47.900;8.146;2023-10-08T13:11:58;25.10;99.90
36594;DHT22;22603;47.900;8.146;2023-10-08T13:14:45;25.10;99.90
36594;DHT22;22603;47.900;8.146;2023-10-08T13:17:32;25.10;99.90
36594;DHT22;22603;47.900;8.146;2023-10-08T13:20:20;24.90;99.90
36594;DHT22;22603;47.900;8.146;2023-10-08T13:23:09;25.10;99.90
36594;DHT22;22603;47.900;8.146;2023-10-08T13:25:56;25.10;99.90
36594;DHT22;22603;47.900;8.146;2023-10-08T13:28:49;25.00;99.90
36594;DHT22;22603;47.900;8.146;2023-10-08T13:31:36;25.10;99.90
36594;DHT22;22603;47.900;8.146;2023-10-08T13:34:23;25.10;99.90
36594;DHT22;22603;47.900;8.146;2023-10-08T13:37:13;25.20;99.90
36594;DHT22;22603;47.900;8.146;2023-10-08T13:40:01;25.10;99.90
36594;DHT22;22603;47.900;8.146;2023-10-08T13:42:48;25.10;99.90
36594;DHT22;22603;47.900;8.146;2023-10-08T13:45:34;25.10;99.90
36594;DHT22;22603;47.900;8.146;2023-10-08T13:48:23;25.20;99.90
36594;DHT22;22603;47.900;8.146;2023-10-08T13:51:10;25.10;99.90
36594;DHT22;22603;47.900;8.146;2023-10-08T13:54:01;24.90;99.90
36594;DHT22;22603;47.900;8.146;2023-10-08T13:56:52;25.10;99.90
36594;DHT22;22603;47.900;8.146;2023-10-08T13:59:40;25.00;99.90
36594;DHT22;22603;47.900;8.146;2023-10-08T14:02:28;25.10;99.90
36594;DHT22;22603;47.900;8.146;2023-10-08T14:05:16;25.00;99.90
36594;DHT22;22603;47.900;8.146;2023-10-08T14:08:03;25.00;99.90
36594;DHT22;22603;47.900;8.146;2023-10-08T14:10:57;24.90;99.90
36594;DHT22;22603;47.900;8.146;2023-10-08T14:13:47;24.80;99.90
36594;DHT22;22603;47.900;8.146;2023-10-08T14:16:34;24.60;99.90
36594;DHT22;22603;47.900;8.146;2023-10-08T14:19:21;24.60;99.90
36594;DHT22;22603;47.900;8.146;2023-10-08T14:22:14;24.60;99.90
36594;DHT22;22603;47.900;8.146;2023-10-08T14:25:02;24.50;99.90
36594;DHT22;22603;47.900;8.146;2023-10-08T14:27:58;24.30;99.90
36594;DHT22;22603;47.900;8.146;2023-10-08T14:30:50;24.10;99.90
36594;DHT22;22603;47.900;8.146;2023-10-08T14:33:41;24.00;99.90
36594;DHT22;22603;47.900;8.146;2023-10-08T14:36:40;23.80;99.90
36594;DHT22;22603;47.900;8.146;2023-10-08T14:39:44;24.00;99.90
36594;DHT22;22603;47.900;8.146;2023-10-08T14:42:49;24.00;99.90
36594;DHT22;22603;47.900;8.146;2023-10-08T14:45:46;23.80;99.90
36594;DHT22;22603;47.900;8.146;2023-10-08T14:48:34;23.70;99.90
36594;DHT22;22603;47.900;8.146;2023-10-08T14:51:22;23.60;99.90
36594;DHT22;22603;47.900;8.146;2023-10-08T14:54:10;23.50;99.90
36594;DHT22;22603;47.900;8.146;2023-10-08T14:56:57;23.20;99.90
36594;DHT22;22603;47.900;8.146;2023-10-08T14:59:44;22.90;99.90
36594;DHT22;22603;47.900;8.146;2023-10-08T15:02:34;22.80;99.90
36594;DHT22;22603;47.900;8.146;2023-10-08T15:05:26;22.70;99.90
36594;DHT22;22603;47.900;8.146;2023-10-08T15:08:12;22.50;99.90
36594;DHT22;22603;47.900;8.146;2023-10-08T15:11:00;22.40;99.90
36594;DHT22;22603;47.900;8.146;2023-10-08T15:13:48;22.20;99.90
36594;DHT22;22603;47.900;8.146;2023-10-08T15:16:39;22.10;99.90
36594;DHT22;22603;47.900;8.146;2023-10-08T15:19:28;22.00;99.90
36594;DHT22;22603;47.900;8.146;2023-10-08T15:22:14;21.90;99.90
36594;DHT22;22603;47.900;8.146;2023-10-08T15:25:01;21.80;99.90
36594;DHT22;22603;47.900;8.146;2023-10-08T15:27:48;21.60;99.90
36594;DHT22;22603;47.900;8.146;2023-10-08T15:30:38;21.60;99.90
36594;DHT22;22603;47.900;8.146;2023-10-08T15:33:25;21.50;99.90
36594;DHT22;22603;47.900;8.146;2023-10-08T15:36:14;21.50;99.90
36594;DHT22;22603;47.900;8.146;2023-10-08T15:39:00;21.40;99.90
36594;DHT22;22603;47.900;8.146;2023-10-08T15:41:50;21.20;99.90
36594;DHT22;22603;47.900;8.146;2023-10-08T15:44:37;21.20;99.90
36594;DHT22;22603;47.900;8.146;2023-10-08T15:47:24;20.90;99.90
36594;DHT22;22603;47.900;8.146;2023-10-08T15:50:12;20.90;99.90
36594;DHT22;22603;47.900;8.146;2023-10-08T15:53:00;20.80;99.90
36594;DHT22;22603;47.900;8.146;2023-10-08T15:55:47;20.60;99.90
36594;DHT22;22603;47.900;8.146;2023-10-08T15:58:34;20.40;99.90
36594;DHT22;22603;47.900;8.146;2023-10-08T16:01:21;20.20;99.90
36594;DHT22;22603;47.900;8.146;2023-10-08T16:04:08;19.90;99.90
36594;DHT22;22603;47.900;8.146;2023-10-08T16:06:56;19.70;99.90
36594;DHT22;22603;47.900;8.146;2023-10-08T16:09:45;19.50;99.90
36594;DHT22;22603;47.900;8.146;2023-10-08T16:12:32;19.30;99.90
36594;DHT22;22603;47.900;8.146;2023-10-08T16:15:19;19.10;99.90
36594;DHT22;22603;47.900;8.146;2023-10-08T16:18:07;18.90;99.90
36594;DHT22;22603;47.900;8.146;2023-10-08T16:20:55;18.70;99.90
36594;DHT22;22603;47.900;8.146;2023-10-08T16:23:42;18.50;99.90
36594;DHT22;22603;47.900;8.146;2023-10-08T16:26:30;18.40;99.90
36594;DHT22;22603;47.900;8.146;2023-10-08T16:29:17;18.20;99.90
36594;DHT22;22603;47.900;8.146;2023-10-08T16:32:05;18.00;99.90
36594;DHT22;22603;47.900;8.146;2023-10-08T16:34:53;17.80;99.90
36594;DHT22;22603;47.900;8.146;2023-10-08T16:37:41;17.50;99.90
36594;DHT22;22603;47.900;8.146;2023-10-08T16:40:27;17.30;99.90
36594;DHT22;22603;47.900;8.146;2023-10-08T16:43:16;17.10;99.90
36594;DHT22;22603;47.900;8.146;2023-10-08T16:46:03;17.00;99.90
36594;DHT22;22603;47.900;8.146;2023-10-08T16:48:51;16.80;99.90
36594;DHT22;22603;47.900;8.146;2023-10-08T16:51:38;16.60;99.90
36594;DHT22;22603;47.900;8.146;2023-10-08T16:54:25;16.40;99.90
36594;DHT22;22603;47.900;8.146;2023-10-08T16:57:12;16.30;99.90
36594;DHT22;22603;47.900;8.146;2023-10-08T17:00:00;16.10;99.90
36594;DHT22;22603;47.900;8.146;2023-10-08T17:02:49;15.90;99.90
36594;DHT22;22603;47.900;8.146;2023-10-08T17:05:38;15.80;99.90
36594;DHT22;22603;47.900;8.146;2023-10-08T17:08:25;15.70;99.90
36594;DHT22;22603;47.900;8.146;2023-10-08T17:11:12;15.60;99.90
36594;DHT22;22603;47.900;8.146;2023-10-08T17:14:00;15.50;99.90
36594;DHT22;22603;47.900;8.146;2023-10-08T17:16:50;15.40;99.90
36594;DHT22;22603;47.900;8.146;2023-10-08T17:19:37;15.20;99.90
36594;DHT22;22603;47.900;8.146;2023-10-08T17:22:24;15.10;99.90
36594;DHT22;22603;47.900;8.146;2023-10-08T17:25:11;14.90;99.90
36594;DHT22;22603;47.900;8.146;2023-10-08T17:27:58;14.80;99.90
36594;DHT22;22603;47.900;8.146;2023-10-08T17:30:45;14.70;99.90
36594;DHT22;22603;47.900;8.146;2023-10-08T17:33:33;14.60;99.90
36594;DHT22;22603;47.900;8.146;2023-10-08T17:36:20;14.40;99.90
36594;DHT22;22603;47.900;8.146;2023-10-08T17:39:06;14.30;99.90
36594;DHT22;22603;47.900;8.146;2023-10-08T17:42:01;14.20;99.90
36594;DHT22;22603;47.900;8.146;2023-10-08T17:44:49;14.00;99.90
36594;DHT22;22603;47.900;8.146;2023-10-08T17:47:36;13.80;99.90
36594;DHT22;22603;47.900;8.146;2023-10-08T17:50:28;13.70;99.90
36594;DHT22;22603;47.900;8.146;2023-10-08T17:53:15;13.70;99.90
36594;DHT22;22603;47.900;8.146;2023-10-08T17:56:04;13.60;99.90
36594;DHT22;22603;47.900;8.146;2023-10-08T17:58:52;13.50;99.90
36594;DHT22;22603;47.900;8.146;2023-10-08T18:01:40;13.40;99.90
36594;DHT22;22603;47.900;8.146;2023-10-08T18:04:27;13.30;99.90
36594;DHT22;22603;47.900;8.146;2023-10-08T18:07:16;13.30;99.90
36594;DHT22;22603;47.900;8.146;2023-10-08T18:10:03;13.10;99.90
36594;DHT22;22603;47.900;8.146;2023-10-08T18:12:51;13.00;99.90